Aérodrome :
LOGIN :

S'inscrire | Disclaimer

   EN    FR    IT 

 










Légende :    VFR   VFR Marginal   IFR   IFR Intensif   IFR Très Intensif
Visi : 
Plafond : 
>= 8 km
>= 3000ft
5 à 8 km
1000 à 3000 ft
1500m à 5 km
500 à 1000 ft
800 à 1500m
200 à 500 ft
< 800m
< 200 ft
Symboles :   Orages  Brouillard  Fortes neiges  Fortes précipitations  Vent > 20 kt
SIGMETs :   Divers  Orages  Givrage  Turbulence  Onde Orograph.  Cendres Volcan.







- Altitude de l'aérodrome : 1045 ft
- Code IATA : KIT


LGKC - Kithira

METAR N/A
TAF TAF LGKC
Valide du 15 à 06h jusqu'au 15 à 15h UTC


150500Z 1506/1515 18020G35KT 9999 SCT020
Pas de NOTAMs connus pour ce terrain.
2 SIGMETs publiés pour la FIR Athinai (LGGG) :
 
Orages noyés dans la masse
LGGG SIGMET 3 VALID 150659/151059 LGAT
LGGG ATHINAI FIR/UIR EMBD TS OBS SW LINE N4030 E02100 - N3550 E02400 STNR NC=
Orages noyés dans la masse
LGGG SIGMET 2 VALID 150259/150659 LGAT
LGGG ATHINAI FIR/UIR EMBD TS OBS N OF N3700 AND W OF E02130 STNR NC=



MET'MAP, la Météo Aéronautique d'un coup d'oeil ! - Copyright ORBIFLY Décembre 2007 - Disclaimer

ORBIFLY MET'MAP TEAM :

Programmation & Développement : Alexandra Zaïnal
Conception & Développement : Baudouin d'Aumeries
Co-Programmation & Développement : Marc-Olivier Méhu
Soutien technique & logistique : Manuel Goepfert

Contact : metmap@orbifly.com




SOURCES & CREDITS :

   NOAA